Terminal Aerodrome Forecast
Issued by NWS

Home | Current Version | Previous Version | Text Only | Print | Product List | Glossary On
Versions: 1 2 3 4 5 6 7 8 9 10 11 12 13 14 15 16 17
000
FTUS43 KMPX 271700
TAFRNH
TAF
KRNH 271727Z 2718/2818 32005KT P6SM SKC
     FM272200 VRB03KT P6SM SCT150
     FM280400 16005KT P6SM BKN080 OVC120
     FM280700 14012KT 4SM -SN SCT015 OVC035
      TEMPO 2808/2812 1 1/2SM -SN OVC015
     FM281400 14006KT 5SM -SN OVC015=

USA.gov is the U.S. government's official web portal to all federal, state and local government web resources and services.